»·PEaware :: N707CP KAPA-KGJT

N707CP :: KAPA-KGJT

FLIGHT INFORMATION

Flight Status: Arrived
Operator: Privately registered:
United States
More flights under this callsign
Pilot: Chase W. (8260)
Aircraft: ECLIPSE 500
(EA50)
More flights by this aircraft type
Origin: KAPA Centennial
United States
Destination: KGJT Walker
United States
More flights between these airports :: More routes between these airports
Route: ROCKI3 DBL V134 PACES
File this flight plan on PilotEdge
Remarks:
Altitude:
(Current/Filed)
24,000ft
Speed:
(Current/Filed)
300kts
Departed: 08-Oct-17 11:28 AM
Arrived: 08-Oct-17 12:19 PM
Distance/Time
Traveled:
173nm/0:51
Distance/Time
To Go:
Arrived

Flight Plot

Page will automatically refresh every two minutes.

Flight plan parsing failed; only flown route is shown


Map Options




Map Legend


Flown Route
Filed Route
Departure Airport
Arrival Airport
Navaid (VOR, NDB)
Fix

Horizontal Profiles

Position Reports

Time Latitude Longitude Heading Altitude Ground
Speed
08-Oct-17 11:10 39.569023 -104.848319 357 5885ft 0kts
08-Oct-17 11:11 39.569023 -104.848319 357 5885ft 0kts
08-Oct-17 11:12 39.569023 -104.848319 357 5885ft 0kts
08-Oct-17 11:13 39.569023 -104.848319 357 5885ft 0kts
08-Oct-17 11:14 39.569023 -104.848319 357 5885ft 0kts
08-Oct-17 11:15 39.569023 -104.848319 357 5885ft 0kts
08-Oct-17 11:16 39.569023 -104.848319 357 5885ft 0kts
08-Oct-17 11:17 39.569023 -104.848319 357 5885ft 0kts
08-Oct-17 11:18 39.569023 -104.848319 357 5885ft 0kts
08-Oct-17 11:19 39.569013 -104.848408 221 5885ft 0kts
08-Oct-17 11:20 39.568850 -104.848612 226 5885ft 14kts
08-Oct-17 11:21 39.564857 -104.849182 177 5885ft 30kts
08-Oct-17 11:22 39.560262 -104.848960 178 5885ft 29kts
08-Oct-17 11:23 39.557347 -104.848829 179 5885ft 0kts
08-Oct-17 11:24 39.557347 -104.848829 179 5885ft 0kts
08-Oct-17 11:25 39.556986 -104.848831 189 5885ft 7kts
08-Oct-17 11:26 39.556823 -104.849019 268 5885ft 0kts
08-Oct-17 11:27 39.556966 -104.850241 357 5885ft 0kts
08-Oct-17 11:28 39.556966 -104.850241 357 5885ft 0kts
08-Oct-17 11:29 39.556966 -104.850241 357 5885ft 0kts
08-Oct-17 11:30 39.556966 -104.850241 357 5885ft 0kts
08-Oct-17 11:31 39.556966 -104.850241 357 5885ft 0kts
08-Oct-17 11:32 39.568746 -104.850755 356 5885ft 126kts
08-Oct-17 11:33 39.601779 -104.850948 356 7054ft 179kts
08-Oct-17 11:34 39.637343 -104.849754 356 8830ft 187kts
08-Oct-17 11:35 39.676479 -104.848243 356 10517ft 198kts
08-Oct-17 11:36 39.707652 -104.865904 273 12008ft 182kts
08-Oct-17 11:37 39.707397 -104.901544 264 13249ft 181kts
08-Oct-17 11:38 39.707056 -104.937613 265 14456ft 181kts
08-Oct-17 11:39 39.706635 -104.983281 265 15895ft 182kts
08-Oct-17 11:40 39.706167 -105.034429 265 17401ft 184kts
08-Oct-17 11:41 39.705677 -105.087534 266 18854ft 185kts
08-Oct-17 11:42 39.705156 -105.143338 266 20259ft 186kts
08-Oct-17 11:43 39.704588 -105.203446 266 21620ft 189kts
08-Oct-17 11:44 39.703974 -105.264101 266 22875ft 192kts
08-Oct-17 11:45 39.703247 -105.330718 266 23982ft 202kts
08-Oct-17 11:46 39.702324 -105.407397 266 24015ft 247kts
08-Oct-17 11:47 39.701289 -105.492732 267 24029ft 271kts
08-Oct-17 11:48 39.700108 -105.585956 267 24046ft 284kts
08-Oct-17 11:49 39.695065 -105.678503 255 24060ft 290kts
08-Oct-17 11:50 39.676079 -105.775114 254 24058ft 294kts
08-Oct-17 11:51 39.656554 -105.871023 254 24068ft 297kts
08-Oct-17 11:52 39.636873 -105.966235 254 24078ft 297kts
08-Oct-17 11:53 39.616736 -106.062839 254 24089ft 298kts
08-Oct-17 11:54 39.596495 -106.159418 254 24112ft 298kts
08-Oct-17 11:55 39.576307 -106.255291 254 24133ft 297kts
08-Oct-17 11:56 39.555918 -106.351673 254 24134ft 298kts
08-Oct-17 11:57 39.535215 -106.449113 254 24086ft 299kts
08-Oct-17 11:58 39.514500 -106.546154 254 24039ft 299kts
08-Oct-17 11:59 39.493851 -106.642417 254 24035ft 299kts
08-Oct-17 12:00 39.475018 -106.729835 254 24045ft 299kts
08-Oct-17 12:01 39.454105 -106.826576 253 24040ft 299kts
08-Oct-17 12:02 39.434011 -106.923451 255 24042ft 298kts
08-Oct-17 12:03 39.415265 -107.020813 254 24044ft 296kts
08-Oct-17 12:04 39.396219 -107.119421 254 24046ft 293kts
08-Oct-17 12:05 39.377332 -107.216888 254 24048ft 292kts
08-Oct-17 12:06 39.358320 -107.314590 254 24045ft 292kts
08-Oct-17 12:07 39.339273 -107.412020 254 24019ft 292kts
08-Oct-17 12:08 39.319461 -107.512940 254 23680ft 298kts
08-Oct-17 12:09 39.301058 -107.606358 254 22697ft 297kts
08-Oct-17 12:10 39.282819 -107.698245 253 20733ft 290kts
08-Oct-17 12:11 39.263967 -107.792895 253 18494ft 283kts
08-Oct-17 12:12 39.245086 -107.887244 253 16415ft 278kts
08-Oct-17 12:13 39.226790 -107.978273 253 14952ft 267kts
08-Oct-17 12:14 39.208090 -108.070805 253 14935ft 280kts
08-Oct-17 12:15 39.189777 -108.161933 253 13759ft 270kts
08-Oct-17 12:16 39.161419 -108.239369 209 11942ft 242kts
08-Oct-17 12:17 39.106236 -108.274989 209 11922ft 197kts
08-Oct-17 12:18 39.066225 -108.303543 242 11689ft 158kts
08-Oct-17 12:19 39.072184 -108.357554 279 9741ft 164kts
08-Oct-17 12:20 39.079386 -108.408936 281 7639ft 158kts
08-Oct-17 12:21 39.089522 -108.457546 295 6341ft 159kts
08-Oct-17 12:22 39.109206 -108.497656 307 5174ft 129kts
08-Oct-17 12:23 39.122658 -108.521898 307 4860ft 14kts
08-Oct-17 12:24 39.122454 -108.523518 216 4860ft 0kts

Navigation Log

Ident Type
Flight plan parsing failed, navigation log unavailable